Time;durP1;ratioP1;P1;durP2;ratioP2;P2;SDS_P1;SDS_P2;PMS_P1;PMS_P2;Temp;Humidity;BMP_temperature;BMP_pressure;BME280_temperature;BME280_humidity;BME280_pressure;Samples;Min_cycle;Max_cycle;Signal;HPM_P1;HPM_P2
2023/06/21 00:00:15;;;;;;;9.60;6.63;;;18.10;95.40;;;;;;2095749;28;20179;-62
2023/06/21 00:01:16;;;;;;;7.33;5.80;;;18.10;95.50;;;;;;2095045;28;20440;-64
2023/06/21 00:02:17;;;;;;;11.50;6.97;;;18.00;95.90;;;;;;2086778;28;20470;-62
2023/06/21 00:03:18;;;;;;;7.77;6.10;;;18.00;95.40;;;;;;2087272;28;20228;-63
2023/06/21 00:04:18;;;;;;;10.13;6.73;;;18.10;95.30;;;;;;2096648;28;20479;-63
2023/06/21 00:05:19;;;;;;;7.40;6.13;;;18.10;95.30;;;;;;2096120;28;20364;-63
2023/06/21 00:06:20;;;;;;;8.47;6.63;;;18.10;95.40;;;;;;2096947;28;20596;-63
2023/06/21 00:07:23;;;;;;;7.67;6.50;;;18.10;95.30;;;;;;2096339;28;20701;-63
2023/06/21 00:08:24;;;;;;;11.30;6.60;;;18.10;95.40;;;;;;2096061;28;20269;-63
2023/06/21 00:09:25;;;;;;;11.40;7.00;;;18.10;95.50;;;;;;2095702;28;20472;-63
2023/06/21 00:10:28;;;;;;;7.53;6.43;;;18.10;95.50;;;;;;2102982;28;20464;-63
2023/06/21 00:11:30;;;;;;;10.63;6.63;;;18.10;95.40;;;;;;2095725;28;20684;-62
2023/06/21 00:12:31;;;;;;;8.63;6.43;;;18.00;95.60;;;;;;2091898;28;20915;-64
2023/06/21 00:13:31;;;;;;;8.77;6.53;;;18.00;95.70;;;;;;2092313;28;20462;-64
2023/06/21 00:14:32;;;;;;;8.77;6.40;;;18.00;95.70;;;;;;2096208;28;20784;-63
2023/06/21 00:15:33;;;;;;;10.60;7.20;;;17.90;95.80;;;;;;2098397;28;20266;-63
2023/06/21 00:16:33;;;;;;;11.53;6.87;;;17.90;96.20;;;;;;2096330;28;20260;-63
2023/06/21 00:17:34;;;;;;;10.37;7.00;;;17.90;96.50;;;;;;2099711;28;20227;-64
2023/06/21 00:18:35;;;;;;;9.93;6.70;;;17.90;96.60;;;;;;2096092;28;20226;-63
2023/06/21 00:19:37;;;;;;;11.43;6.63;;;17.90;96.60;;;;;;2099323;28;20227;-64
2023/06/21 00:20:37;;;;;;;9.10;6.67;;;17.90;97.00;;;;;;2103788;28;20218;-62
2023/06/21 00:21:38;;;;;;;10.13;6.70;;;17.90;96.50;;;;;;2103844;28;20490;-65
2023/06/21 00:22:40;;;;;;;11.43;7.20;;;17.90;96.30;;;;;;2103657;28;20400;-63
2023/06/21 00:23:43;;;;;;;11.27;6.93;;;17.90;96.40;;;;;;2098770;28;20556;-64
2023/06/21 00:24:44;;;;;;;9.37;7.00;;;17.90;96.60;;;;;;2096013;28;20474;-63
2023/06/21 00:25:44;;;;;;;8.27;6.30;;;17.90;96.50;;;;;;2102781;28;21071;-64
2023/06/21 00:26:47;;;;;;;9.13;7.20;;;17.90;96.40;;;;;;2103933;28;20248;-63
2023/06/21 00:27:47;;;;;;;12.67;7.50;;;17.90;96.40;;;;;;2095803;28;20235;-64
2023/06/21 00:28:48;;;;;;;8.60;6.67;;;17.80;96.50;;;;;;2099536;28;20475;-64
2023/06/21 00:29:49;;;;;;;8.80;6.57;;;18.00;96.40;;;;;;2104410;28;20265;-64
2023/06/21 00:30:50;;;;;;;11.20;6.93;;;17.90;96.30;;;;;;2099877;28;20219;-64
2023/06/21 00:31:51;;;;;;;9.67;6.73;;;17.80;96.70;;;;;;2090106;28;20220;-64
2023/06/21 00:32:51;;;;;;;9.43;6.93;;;17.80;96.80;;;;;;2099611;28;21005;-65
2023/06/21 00:33:52;;;;;;;9.47;6.60;;;17.80;96.90;;;;;;2087606;28;20220;-64
2023/06/21 00:34:53;;;;;;;11.13;7.30;;;17.80;96.80;;;;;;2091665;28;20274;-63
2023/06/21 00:35:53;;;;;;;8.73;6.67;;;17.80;96.90;;;;;;2095854;28;20235;-64
2023/06/21 00:36:54;;;;;;;7.50;6.77;;;17.70;97.40;;;;;;2103228;28;20711;-64
2023/06/21 00:37:55;;;;;;;7.47;6.60;;;17.60;98.00;;;;;;2104746;28;20222;-63
2023/06/21 00:38:56;;;;;;;8.90;6.43;;;17.60;98.20;;;;;;2101341;28;20234;-63
2023/06/21 00:39:57;;;;;;;8.73;6.57;;;17.40;99.10;;;;;;2103406;28;20696;-65
2023/06/21 00:40:58;;;;;;;9.40;6.90;;;17.30;99.50;;;;;;2100479;28;20555;-64
2023/06/21 00:41:58;;;;;;;13.07;7.63;;;17.30;99.90;;;;;;2097605;28;20428;-64
2023/06/21 00:42:59;;;;;;;9.80;7.00;;;17.40;99.60;;;;;;2097731;28;20214;-64
2023/06/21 00:44:00;;;;;;;8.37;7.57;;;17.40;99.20;;;;;;2099910;28;20649;-64
2023/06/21 00:45:00;;;;;;;9.20;7.00;;;17.40;99.30;;;;;;2103134;28;20186;-63
2023/06/21 00:46:02;;;;;;;8.00;6.70;;;17.50;99.10;;;;;;2100406;28;20179;-65
2023/06/21 00:47:04;;;;;;;9.73;7.23;;;17.40;99.00;;;;;;2104233;28;20271;-63
2023/06/21 00:48:06;;;;;;;11.13;7.40;;;17.40;99.00;;;;;;2100317;28;20437;-64
2023/06/21 00:49:06;;;;;;;8.00;7.20;;;17.40;98.90;;;;;;2097348;28;20423;-64
2023/06/21 00:50:08;;;;;;;8.77;7.67;;;17.40;98.80;;;;;;2100646;28;20977;-63
2023/06/21 00:51:08;;;;;;;9.77;7.20;;;17.50;98.80;;;;;;2103504;28;20701;-64
2023/06/21 00:52:10;;;;;;;8.57;6.87;;;17.30;98.70;;;;;;2105366;28;20427;-63
2023/06/21 00:53:10;;;;;;;8.67;6.83;;;17.30;98.80;;;;;;2103674;28;20229;-64
2023/06/21 00:54:18;;;;;;;10.03;7.50;;;17.30;99.00;;;;;;2105578;28;20886;-63
2023/06/21 00:55:19;;;;;;;9.70;7.23;;;17.30;99.40;;;;;;2101356;28;20306;-64
2023/06/21 00:56:20;;;;;;;11.43;7.20;;;17.30;99.10;;;;;;2105770;28;20459;-63
2023/06/21 00:57:21;;;;;;;9.63;7.10;;;17.40;98.80;;;;;;2101922;28;20232;-62
2023/06/21 00:58:23;;;;;;;10.33;7.23;;;17.40;99.10;;;;;;2097149;28;20736;-64
2023/06/21 00:59:27;;;;;;;11.53;7.23;;;17.50;99.00;;;;;;2093755;28;20223;-64
2023/06/21 01:00:28;;;;;;;8.57;6.97;;;17.50;98.60;;;;;;2105689;28;20460;-64
2023/06/21 01:01:29;;;;;;;8.03;6.70;;;17.50;98.50;;;;;;2102428;28;20976;-63
2023/06/21 01:02:31;;;;;;;8.67;7.50;;;17.60;98.40;;;;;;2102608;28;20231;-63
2023/06/21 01:03:32;;;;;;;12.53;7.57;;;17.60;98.30;;;;;;2105605;28;20470;-64
2023/06/21 01:04:36;;;;;;;8.70;6.90;;;17.60;98.20;;;;;;2105789;28;20548;-64
2023/06/21 01:05:36;;;;;;;9.23;6.40;;;17.60;98.20;;;;;;2106310;28;20470;-66
2023/06/21 01:06:47;;;;;;;8.23;7.37;;;17.60;98.10;;;;;;2102862;28;20467;-64
2023/06/21 01:08:29;;;;;;;8.80;6.90;;;17.50;98.60;;;;;;2101522;28;20634;-64
2023/06/21 01:09:58;;;;;;;8.87;7.17;;;17.40;98.70;;;;;;2100093;28;20564;-63
2023/06/21 01:11:23;;;;;;;11.47;7.60;;;17.50;98.80;;;;;;2100555;28;21036;-64
2023/06/21 01:13:07;;;;;;;10.77;6.97;;;17.50;98.60;;;;;;2096124;28;20463;-63
2023/06/21 01:14:28;;;;;;;10.57;6.87;;;17.60;98.20;;;;;;2097974;28;20798;-63
2023/06/21 01:15:39;;;;;;;10.27;7.10;;;17.60;98.20;;;;;;2101991;28;20573;-65
2023/06/21 01:16:45;;;;;;;8.43;6.60;;;17.60;98.50;;;;;;2101086;28;20502;-63
2023/06/21 01:17:52;;;;;;;10.30;6.73;;;17.60;98.30;;;;;;2100886;28;20475;-64
2023/06/21 01:18:53;;;;;;;8.77;6.77;;;17.70;98.10;;;;;;2087251;28;20469;-63
2023/06/21 01:19:58;;;;;;;10.50;6.90;;;17.70;98.10;;;;;;2092880;28;20472;-63
2023/06/21 01:21:00;;;;;;;9.80;7.20;;;17.60;98.20;;;;;;2092682;28;20453;-63
2023/06/21 01:22:18;;;;;;;8.10;7.23;;;17.70;98.00;;;;;;2094457;28;20866;-63
2023/06/21 01:23:53;;;;;;;8.37;6.83;;;17.70;98.00;;;;;;2104222;28;20473;-64
2023/06/21 01:25:29;;;;;;;9.17;7.13;;;17.70;98.00;;;;;;2104943;28;20466;-63
2023/06/21 01:26:55;;;;;;;9.40;6.63;;;17.60;98.40;;;;;;2096601;28;20986;-63
2023/06/21 01:28:41;;;;;;;10.23;6.77;;;17.60;98.40;;;;;;2102376;28;21008;-63
2023/06/21 01:29:46;;;;;;;8.93;6.20;;;17.70;98.20;;;;;;2109272;28;20486;-64
2023/06/21 01:30:48;;;;;;;13.33;6.77;;;17.70;98.00;;;;;;2109191;28;20462;-64
2023/06/21 01:31:52;;;;;;;8.07;6.57;;;17.70;98.00;;;;;;2095255;28;20555;-63
2023/06/21 01:32:55;;;;;;;10.73;7.43;;;17.70;98.20;;;;;;2077835;28;20831;-63
2023/06/21 01:33:57;;;;;;;8.07;6.37;;;17.70;97.90;;;;;;2085561;28;20462;-63
2023/06/21 01:35:01;;;;;;;8.63;6.83;;;17.70;97.90;;;;;;2099973;28;21063;-63
2023/06/21 01:36:03;;;;;;;9.67;7.03;;;17.70;97.80;;;;;;2089676;28;20436;-64
2023/06/21 01:37:06;;;;;;;7.63;6.83;;;17.70;98.50;;;;;;2092417;28;20425;-63
2023/06/21 01:38:07;;;;;;;10.03;7.13;;;17.70;98.00;;;;;;2082071;28;20442;-63
2023/06/21 01:39:09;;;;;;;8.67;7.13;;;17.70;97.80;;;;;;2092966;28;20790;-63
2023/06/21 01:40:11;;;;;;;10.83;7.17;;;17.70;97.70;;;;;;2094159;28;20417;-63
2023/06/21 01:41:12;;;;;;;9.37;7.37;;;17.80;97.60;;;;;;2093364;28;20455;-63
2023/06/21 01:42:13;;;;;;;10.20;7.13;;;17.80;97.50;;;;;;2093434;28;20923;-63
2023/06/21 01:43:14;;;;;;;9.27;7.13;;;17.70;97.50;;;;;;2093110;28;20523;-63
2023/06/21 01:44:16;;;;;;;11.03;7.17;;;17.70;97.40;;;;;;2093008;28;20412;-63
2023/06/21 01:45:17;;;;;;;8.70;6.93;;;17.70;97.50;;;;;;2085340;28;20461;-63
2023/06/21 01:46:21;;;;;;;8.73;6.70;;;17.70;97.20;;;;;;2096187;28;20464;-64
2023/06/21 01:47:22;;;;;;;12.13;7.67;;;17.70;97.30;;;;;;2101461;28;20471;-63
2023/06/21 01:48:23;;;;;;;8.47;7.23;;;17.70;97.30;;;;;;2101421;28;21009;-65
2023/06/21 01:49:26;;;;;;;11.77;7.27;;;17.70;97.40;;;;;;2100982;28;20479;-63
2023/06/21 01:50:29;;;;;;;10.20;7.57;;;17.70;97.30;;;;;;2096824;28;20573;-63
2023/06/21 01:51:30;;;;;;;7.37;6.50;;;17.70;97.00;;;;;;2096293;28;20555;-63
2023/06/21 01:52:33;;;;;;;10.00;7.23;;;17.70;97.00;;;;;;2096749;28;20806;-62
2023/06/21 01:53:34;;;;;;;10.13;7.37;;;17.80;97.20;;;;;;2096872;28;20827;-63
2023/06/21 01:54:39;;;;;;;10.53;7.30;;;17.70;96.80;;;;;;2104845;28;20542;-63
2023/06/21 01:55:44;;;;;;;9.00;6.73;;;17.70;97.10;;;;;;2104489;28;21019;-63
2023/06/21 01:56:47;;;;;;;10.50;7.13;;;17.70;97.20;;;;;;2093819;28;20539;-63
2023/06/21 01:57:48;;;;;;;8.33;7.43;;;17.80;97.20;;;;;;2104862;28;20472;-64
2023/06/21 01:58:49;;;;;;;10.73;7.77;;;17.70;97.20;;;;;;2105964;28;20459;-63
2023/06/21 01:59:50;;;;;;;9.47;7.57;;;17.70;97.40;;;;;;2100700;28;20230;-63
2023/06/21 02:00:51;;;;;;;10.27;7.33;;;17.70;97.30;;;;;;2096943;28;20557;-63
2023/06/21 02:01:53;;;;;;;10.13;7.50;;;17.70;97.20;;;;;;2096787;28;20227;-63
2023/06/21 02:02:56;;;;;;;10.87;7.13;;;17.80;97.20;;;;;;2096888;28;20549;-63
2023/06/21 02:04:01;;;;;;;8.63;6.93;;;17.80;97.00;;;;;;2095418;28;20452;-64
2023/06/21 02:05:02;;;;;;;7.73;6.83;;;17.70;97.10;;;;;;2097305;28;20425;-62
2023/06/21 02:06:05;;;;;;;10.80;6.90;;;17.60;97.30;;;;;;2096589;28;20511;-63
2023/06/21 02:07:07;;;;;;;9.43;7.27;;;17.60;97.40;;;;;;2105155;28;20423;-64
2023/06/21 02:08:15;;;;;;;9.50;7.03;;;17.50;97.50;;;;;;2105260;28;20525;-64
2023/06/21 02:09:19;;;;;;;9.37;7.37;;;17.60;97.20;;;;;;2096880;28;20456;-63
2023/06/21 02:10:20;;;;;;;11.67;6.90;;;17.60;97.20;;;;;;2089808;28;20830;-63
2023/06/21 02:11:22;;;;;;;11.03;6.67;;;17.60;97.10;;;;;;2090825;28;20467;-63
2023/06/21 02:12:23;;;;;;;7.70;6.30;;;17.60;96.90;;;;;;2098275;28;20272;-63
2023/06/21 02:13:26;;;;;;;10.77;7.37;;;17.60;96.80;;;;;;2096709;28;20479;-63
2023/06/21 02:14:27;;;;;;;7.00;6.30;;;17.60;96.80;;;;;;2104949;28;20265;-64
2023/06/21 02:15:28;;;;;;;13.00;7.33;;;17.60;96.90;;;;;;2103960;28;20468;-63
2023/06/21 02:16:31;;;;;;;10.67;7.50;;;17.60;97.10;;;;;;2102046;28;21062;-63
2023/06/21 02:17:31;;;;;;;7.77;6.50;;;17.60;97.20;;;;;;2097218;28;20223;-63
2023/06/21 02:18:32;;;;;;;9.90;6.90;;;17.50;97.40;;;;;;2098708;28;20492;-63
2023/06/21 02:19:33;;;;;;;8.40;6.67;;;17.50;97.60;;;;;;2102823;28;20230;-63
2023/06/21 02:20:35;;;;;;;7.97;6.63;;;17.50;97.90;;;;;;2093424;28;20284;-64
2023/06/21 02:21:37;;;;;;;8.60;6.80;;;17.50;97.90;;;;;;2104911;28;20528;-63
2023/06/21 02:22:39;;;;;;;8.27;6.53;;;17.50;97.90;;;;;;2093038;28;20460;-63
2023/06/21 02:23:39;;;;;;;9.60;7.20;;;17.60;97.90;;;;;;2101618;28;20475;-63
2023/06/21 02:24:40;;;;;;;10.80;7.77;;;17.60;97.70;;;;;;2101550;28;21048;-63
2023/06/21 02:25:41;;;;;;;9.20;6.60;;;17.60;97.80;;;;;;2102866;28;20287;-63
2023/06/21 02:26:42;;;;;;;9.20;6.87;;;17.60;97.80;;;;;;2088313;28;20238;-63
2023/06/21 02:27:43;;;;;;;10.80;7.33;;;17.60;98.20;;;;;;2100419;28;20242;-64
2023/06/21 02:28:45;;;;;;;11.50;7.30;;;17.60;97.60;;;;;;2096619;28;20472;-63
2023/06/21 02:29:46;;;;;;;8.50;6.67;;;17.60;97.40;;;;;;2096147;28;20238;-64
2023/06/21 02:30:47;;;;;;;10.93;7.10;;;17.70;97.30;;;;;;2097228;28;20483;-63
2023/06/21 02:31:48;;;;;;;8.07;7.13;;;17.70;97.20;;;;;;2096074;28;20365;-63
2023/06/21 02:32:48;;;;;;;9.07;7.17;;;17.50;97.20;;;;;;2096516;28;20969;-63
2023/06/21 02:33:49;;;;;;;9.07;6.80;;;17.50;97.20;;;;;;2097287;28;20310;-63
2023/06/21 02:34:50;;;;;;;7.83;6.93;;;17.50;97.30;;;;;;2096168;28;20249;-63
2023/06/21 02:35:51;;;;;;;11.17;7.23;;;17.40;97.40;;;;;;2090084;28;20465;-63
2023/06/21 02:36:53;;;;;;;10.60;6.63;;;17.40;97.70;;;;;;2104929;28;20218;-63
2023/06/21 02:37:55;;;;;;;7.90;6.77;;;17.40;97.70;;;;;;2105458;28;20290;-63
2023/06/21 02:38:56;;;;;;;9.63;7.30;;;17.40;97.80;;;;;;2105148;28;20467;-63
2023/06/21 02:39:57;;;;;;;8.93;6.90;;;17.40;97.90;;;;;;2095350;28;20461;-64
2023/06/21 02:40:58;;;;;;;10.47;7.20;;;17.40;98.00;;;;;;2096414;28;20194;-63
2023/06/21 02:41:59;;;;;;;8.23;6.70;;;17.40;97.80;;;;;;2104681;28;20191;-63
2023/06/21 02:43:00;;;;;;;8.10;6.90;;;17.40;97.70;;;;;;2105022;28;20525;-63
2023/06/21 02:44:01;;;;;;;9.00;6.73;;;17.50;97.80;;;;;;2098934;28;20428;-63
2023/06/21 02:45:03;;;;;;;9.00;6.83;;;17.40;98.20;;;;;;2097063;28;20511;-64
2023/06/21 02:46:04;;;;;;;8.00;6.50;;;17.30;98.60;;;;;;2104900;28;20213;-63
2023/06/21 02:47:04;;;;;;;9.67;7.37;;;17.30;98.70;;;;;;2105605;28;20783;-62
2023/06/21 02:48:05;;;;;;;11.40;6.87;;;17.20;98.70;;;;;;2097244;28;20220;-63
2023/06/21 02:49:06;;;;;;;9.10;7.07;;;17.30;98.50;;;;;;2097875;28;20184;-64
2023/06/21 02:50:07;;;;;;;11.23;7.03;;;17.40;98.40;;;;;;2105766;28;20211;-63
2023/06/21 02:51:08;;;;;;;10.13;7.00;;;17.50;98.10;;;;;;2096153;28;20554;-63
2023/06/21 02:52:09;;;;;;;9.57;7.10;;;17.40;98.00;;;;;;2096727;28;20431;-63
2023/06/21 02:53:09;;;;;;;8.90;6.53;;;17.40;98.10;;;;;;2104557;28;20205;-63
2023/06/21 02:54:11;;;;;;;9.17;7.07;;;17.40;97.80;;;;;;2104577;28;20183;-64
2023/06/21 02:55:11;;;;;;;6.97;6.27;;;17.40;97.50;;;;;;2104383;28;20616;-63
2023/06/21 02:56:12;;;;;;;12.43;8.07;;;17.40;97.30;;;;;;2104697;28;20419;-63
2023/06/21 02:57:13;;;;;;;8.80;6.93;;;17.40;97.70;;;;;;2105298;28;20256;-63
2023/06/21 02:58:14;;;;;;;10.17;7.07;;;17.30;97.90;;;;;;2108772;28;20195;-63
2023/06/21 02:59:14;;;;;;;10.57;7.07;;;17.40;98.20;;;;;;2107560;28;20651;-63
2023/06/21 03:00:22;;;;;;;9.53;6.57;;;17.40;98.10;;;;;;2089801;28;20491;-63
2023/06/21 03:01:23;;;;;;;10.80;6.90;;;17.40;98.10;;;;;;2101383;28;20908;-63
2023/06/21 03:02:24;;;;;;;9.40;7.00;;;17.30;98.20;;;;;;2100467;28;20498;-63
2023/06/21 03:03:24;;;;;;;10.93;7.20;;;17.40;98.30;;;;;;2097028;28;20230;-63
2023/06/21 03:04:25;;;;;;;9.53;6.93;;;17.30;98.50;;;;;;2096846;28;20243;-63
2023/06/21 03:05:30;;;;;;;8.10;6.30;;;17.30;98.70;;;;;;2104502;28;20218;-63
2023/06/21 03:06:33;;;;;;;7.90;6.10;;;17.30;98.90;;;;;;2099226;28;20697;-63
2023/06/21 03:07:34;;;;;;;9.73;7.77;;;17.30;98.90;;;;;;2099782;28;20474;-64
2023/06/21 03:08:36;;;;;;;9.30;7.07;;;17.40;98.80;;;;;;2104350;28;20471;-64
2023/06/21 03:09:37;;;;;;;12.20;7.60;;;17.50;98.70;;;;;;2104597;28;20246;-64
2023/06/21 03:10:39;;;;;;;8.70;7.00;;;17.40;98.30;;;;;;2100407;28;20459;-64
2023/06/21 03:11:39;;;;;;;7.97;6.57;;;17.20;99.20;;;;;;2100860;28;20222;-63
2023/06/21 03:12:43;;;;;;;7.97;6.67;;;17.20;99.10;;;;;;2098111;28;20539;-64
2023/06/21 03:13:43;;;;;;;9.27;7.17;;;17.20;99.20;;;;;;2102380;28;20230;-63
2023/06/21 03:14:44;;;;;;;12.83;7.10;;;17.30;99.30;;;;;;2104017;28;20554;-63
2023/06/21 03:15:45;;;;;;;8.63;7.40;;;17.30;99.50;;;;;;2101292;28;20226;-64
2023/06/21 03:16:46;;;;;;;9.33;6.77;;;17.30;99.00;;;;;;2105296;28;20584;-63
2023/06/21 03:17:46;;;;;;;8.13;7.13;;;17.20;99.30;;;;;;2100464;28;20215;-64
2023/06/21 03:18:47;;;;;;;9.87;7.77;;;17.20;99.10;;;;;;2104472;28;20219;-63
2023/06/21 03:19:48;;;;;;;10.30;7.13;;;17.10;98.70;;;;;;2100555;28;20625;-63
2023/06/21 03:20:50;;;;;;;10.27;7.00;;;17.10;98.90;;;;;;2104353;28;20237;-64
2023/06/21 03:21:50;;;;;;;10.93;7.50;;;17.10;98.80;;;;;;2100562;28;20237;-63
2023/06/21 03:22:51;;;;;;;9.20;7.03;;;17.10;98.90;;;;;;2090186;28;20622;-64
2023/06/21 03:23:52;;;;;;;8.83;7.10;;;17.20;98.80;;;;;;2104678;28;20260;-63
2023/06/21 03:24:52;;;;;;;9.30;7.27;;;17.20;98.80;;;;;;2100095;28;20724;-63
2023/06/21 03:25:54;;;;;;;8.50;6.90;;;17.10;98.70;;;;;;2096792;28;20958;-64
2023/06/21 03:26:54;;;;;;;8.13;6.90;;;17.10;99.30;;;;;;2100945;28;20248;-63
2023/06/21 03:27:59;;;;;;;8.90;7.17;;;16.90;99.90;;;;;;2096509;28;20483;-63
2023/06/21 03:29:00;;;;;;;11.23;7.50;;;16.90;99.90;;;;;;2082815;28;20232;-65
2023/06/21 03:30:01;;;;;;;9.40;7.27;;;16.90;99.90;;;;;;2087524;28;20480;-64
2023/06/21 03:31:02;;;;;;;7.73;6.40;;;16.90;99.90;;;;;;2096170;28;20422;-63
2023/06/21 03:32:03;;;;;;;8.30;6.20;;;17.10;99.90;;;;;;2097783;28;20855;-63
2023/06/21 03:33:04;;;;;;;8.73;6.43;;;17.20;99.90;;;;;;2100262;28;20195;-62
2023/06/21 03:34:05;;;;;;;9.00;6.23;;;17.20;99.80;;;;;;2100423;28;20424;-64
2023/06/21 03:35:06;;;;;;;7.80;6.50;;;17.30;99.80;;;;;;2100837;28;20266;-64
2023/06/21 03:36:06;;;;;;;10.37;7.00;;;17.40;99.40;;;;;;2100885;28;20211;-63
2023/06/21 03:37:07;;;;;;;7.77;6.77;;;17.50;98.90;;;;;;2104446;28;20194;-64
2023/06/21 03:38:08;;;;;;;8.50;6.63;;;17.50;98.80;;;;;;2098627;28;20199;-64
2023/06/21 03:39:08;;;;;;;9.93;7.53;;;17.50;98.10;;;;;;2089984;28;20242;-63
2023/06/21 03:40:13;;;;;;;9.30;6.93;;;17.60;98.00;;;;;;2094486;28;20677;-64
2023/06/21 03:41:14;;;;;;;7.67;6.30;;;17.60;97.60;;;;;;2089705;28;20188;-64
2023/06/21 03:42:14;;;;;;;7.13;6.00;;;17.70;97.50;;;;;;2091740;28;20460;-63
2023/06/21 03:43:15;;;;;;;7.57;6.57;;;17.70;97.40;;;;;;2095277;28;20188;-65
2023/06/21 03:44:16;;;;;;;7.97;6.13;;;17.80;97.30;;;;;;2091835;28;20222;-64
2023/06/21 03:45:16;;;;;;;12.63;6.90;;;17.80;97.40;;;;;;2092269;28;20246;-64
2023/06/21 03:46:18;;;;;;;10.17;6.93;;;17.90;97.60;;;;;;2092497;28;20227;-64
2023/06/21 03:47:19;;;;;;;9.57;6.57;;;18.00;97.60;;;;;;2090534;28;20318;-64
2023/06/21 03:48:19;;;;;;;9.07;6.23;;;18.10;97.10;;;;;;2089793;28;21014;-64
2023/06/21 03:49:21;;;;;;;9.53;6.33;;;18.20;96.90;;;;;;2083602;28;20231;-62
2023/06/21 03:50:23;;;;;;;7.77;6.27;;;18.20;96.70;;;;;;2094893;28;20219;-63
2023/06/21 03:51:24;;;;;;;8.83;6.53;;;18.30;96.60;;;;;;2092075;28;20478;-64
2023/06/21 03:52:24;;;;;;;8.83;6.90;;;18.30;96.40;;;;;;2092431;28;20843;-64
2023/06/21 03:53:27;;;;;;;8.50;6.67;;;18.30;96.30;;;;;;2082838;28;20769;-64
2023/06/21 03:54:27;;;;;;;9.27;7.07;;;18.30;96.60;;;;;;2081489;28;20256;-64
2023/06/21 03:55:28;;;;;;;7.93;6.97;;;18.40;96.50;;;;;;2092320;28;20469;-63
2023/06/21 03:56:29;;;;;;;9.23;7.00;;;18.50;96.00;;;;;;2093881;28;20330;-64
2023/06/21 03:57:29;;;;;;;8.60;6.87;;;18.60;95.80;;;;;;2092361;28;20650;-64
2023/06/21 03:58:30;;;;;;;7.37;5.87;;;18.60;96.70;;;;;;2091007;28;20693;-63
2023/06/21 03:59:31;;;;;;;11.07;6.47;;;18.50;97.20;;;;;;2091665;28;20311;-63
2023/06/21 04:00:32;;;;;;;9.37;7.13;;;18.40;97.10;;;;;;2092509;28;20228;-64
2023/06/21 04:01:32;;;;;;;9.63;6.83;;;18.40;96.70;;;;;;2091219;28;20228;-63
2023/06/21 04:02:33;;;;;;;8.90;6.53;;;18.40;97.10;;;;;;2088398;28;20314;-64
2023/06/21 04:03:34;;;;;;;10.67;6.53;;;18.50;96.60;;;;;;2090522;28;20387;-63
2023/06/21 04:04:34;;;;;;;7.03;6.33;;;18.60;96.40;;;;;;2091404;28;20350;-63
2023/06/21 04:05:35;;;;;;;7.23;6.20;;;18.70;96.10;;;;;;2093713;28;20265;-63
2023/06/21 04:06:37;;;;;;;8.70;7.03;;;18.80;95.80;;;;;;2092204;28;20314;-64
2023/06/21 04:07:39;;;;;;;6.70;6.07;;;18.90;95.70;;;;;;2092325;28;20726;-64
2023/06/21 04:08:40;;;;;;;8.47;6.80;;;18.90;95.50;;;;;;2092038;28;20483;-64
2023/06/21 04:09:40;;;;;;;8.57;6.13;;;19.10;95.20;;;;;;2091600;28;20519;-63
2023/06/21 04:10:41;;;;;;;8.43;6.17;;;19.10;95.00;;;;;;2093217;28;20814;-63
2023/06/21 04:11:42;;;;;;;7.30;6.27;;;19.20;95.00;;;;;;2095651;28;20276;-64
2023/06/21 04:12:42;;;;;;;7.63;6.23;;;19.20;95.00;;;;;;2094557;28;20298;-63
2023/06/21 04:13:43;;;;;;;7.37;6.23;;;19.20;94.70;;;;;;2095394;28;20293;-64
2023/06/21 04:14:44;;;;;;;8.67;6.47;;;19.20;94.60;;;;;;2096121;28;20227;-66
2023/06/21 04:15:45;;;;;;;7.47;6.63;;;19.20;94.40;;;;;;2093170;28;20465;-65
2023/06/21 04:16:45;;;;;;;10.10;6.93;;;19.20;94.30;;;;;;2091868;28;20721;-63
2023/06/21 04:17:46;;;;;;;9.87;7.03;;;19.10;93.90;;;;;;2091579;28;20685;-63
2023/06/21 04:18:47;;;;;;;9.43;6.53;;;19.20;93.80;;;;;;2091446;28;20220;-62
2023/06/21 04:19:48;;;;;;;9.40;7.00;;;19.30;93.60;;;;;;2086976;28;20227;-64
2023/06/21 04:20:49;;;;;;;10.43;6.60;;;19.30;93.90;;;;;;2087287;28;20329;-63
2023/06/21 04:21:50;;;;;;;9.63;7.20;;;19.20;94.40;;;;;;2092022;28;20567;-64
2023/06/21 04:22:51;;;;;;;9.90;6.67;;;19.20;94.60;;;;;;2094134;28;20561;-65
2023/06/21 04:23:53;;;;;;;7.60;6.80;;;19.20;94.60;;;;;;2094982;28;20537;-63
2023/06/21 04:24:54;;;;;;;8.00;6.10;;;19.20;95.10;;;;;;2088647;28;20235;-63
2023/06/21 04:25:56;;;;;;;6.73;6.03;;;19.20;95.10;;;;;;2095880;28;20833;-63
2023/06/21 04:26:58;;;;;;;7.23;6.27;;;19.30;94.90;;;;;;2096201;28;20223;-63
2023/06/21 04:27:59;;;;;;;9.40;6.70;;;19.40;94.80;;;;;;2096996;28;20555;-62
2023/06/21 04:29:01;;;;;;;9.43;6.60;;;19.40;94.60;;;;;;2089774;28;20427;-63
2023/06/21 04:30:01;;;;;;;11.00;6.87;;;19.50;94.60;;;;;;2089116;28;20269;-64
2023/06/21 04:31:02;;;;;;;9.07;6.03;;;19.50;93.70;;;;;;2090975;28;20413;-64
2023/06/21 04:32:03;;;;;;;6.90;5.90;;;19.50;93.90;;;;;;2097665;28;20187;-64
2023/06/21 04:33:04;;;;;;;8.57;6.77;;;19.50;94.20;;;;;;2097328;28;20191;-63
2023/06/21 04:34:05;;;;;;;9.37;6.63;;;19.50;94.40;;;;;;2090760;28;20934;-64
2023/06/21 04:35:06;;;;;;;7.77;5.70;;;19.60;94.50;;;;;;2106169;28;20190;-64
2023/06/21 04:36:07;;;;;;;8.40;5.60;;;19.60;94.70;;;;;;2105628;28;20186;-64
2023/06/21 04:37:08;;;;;;;8.03;6.17;;;19.70;94.70;;;;;;2105624;28;20412;-64
2023/06/21 04:38:10;;;;;;;9.30;6.60;;;19.70;94.70;;;;;;2106218;28;20205;-64
2023/06/21 04:39:11;;;;;;;7.67;6.53;;;19.70;94.70;;;;;;2106191;28;20175;-64
2023/06/21 04:40:17;;;;;;;9.17;6.50;;;19.70;94.60;;;;;;2099457;28;20879;-64
2023/06/21 04:41:19;;;;;;;9.33;6.50;;;19.80;94.50;;;;;;2097049;28;20258;-63
2023/06/21 04:42:20;;;;;;;8.87;6.43;;;19.80;94.60;;;;;;2101739;28;20527;-64
2023/06/21 04:43:24;;;;;;;8.77;6.30;;;19.80;95.20;;;;;;2105176;28;20813;-64
2023/06/21 04:44:27;;;;;;;8.30;6.50;;;19.70;95.80;;;;;;2096812;28;20464;-64
2023/06/21 04:45:30;;;;;;;7.03;6.33;;;19.70;95.40;;;;;;2103507;28;20587;-64
2023/06/21 04:46:31;;;;;;;8.83;6.33;;;19.80;95.20;;;;;;2102198;28;20467;-64
2023/06/21 04:47:31;;;;;;;8.33;6.30;;;19.80;95.20;;;;;;2104484;28;20957;-64
2023/06/21 04:48:32;;;;;;;9.83;6.77;;;19.80;95.00;;;;;;2102272;28;20231;-64
2023/06/21 04:49:33;;;;;;;10.57;7.10;;;19.90;94.70;;;;;;2105548;28;20288;-66
2023/06/21 04:50:33;;;;;;;7.70;6.77;;;20.00;94.00;;;;;;2101576;28;20604;-64
2023/06/21 04:51:34;;;;;;;7.60;6.37;;;19.90;93.10;;;;;;2101514;28;20226;-64
2023/06/21 04:52:37;;;;;;;10.50;6.20;;;19.90;92.90;;;;;;2101204;28;20280;-64
2023/06/21 04:53:38;;;;;;;11.90;6.60;;;20.00;92.70;;;;;;2083589;28;20233;-64
2023/06/21 04:54:39;;;;;;;8.97;6.80;;;20.00;92.50;;;;;;2096771;28;20499;-64
2023/06/21 04:55:42;;;;;;;11.77;6.87;;;20.10;92.40;;;;;;2102115;28;20297;-64
2023/06/21 04:56:43;;;;;;;8.97;7.30;;;20.00;92.40;;;;;;2102176;28;20225;-64
2023/06/21 04:57:47;;;;;;;9.20;7.03;;;20.00;92.40;;;;;;2105171;28;20844;-64
2023/06/21 04:58:47;;;;;;;8.63;6.80;;;20.00;92.90;;;;;;2099645;28;20649;-63
2023/06/21 04:59:48;;;;;;;8.20;6.13;;;20.00;93.10;;;;;;2103177;28;20475;-64
2023/06/21 05:00:49;;;;;;;8.17;6.47;;;20.00;93.20;;;;;;2105925;28;20234;-64
2023/06/21 05:01:51;;;;;;;7.57;6.80;;;19.90;93.30;;;;;;2105838;28;20230;-63
2023/06/21 05:02:52;;;;;;;10.10;7.13;;;20.00;93.50;;;;;;2106050;28;20234;-63
2023/06/21 05:03:55;;;;;;;8.90;6.60;;;20.00;93.80;;;;;;2105629;28;20479;-64
2023/06/21 05:04:56;;;;;;;8.77;6.67;;;20.00;93.30;;;;;;2105344;28;20225;-67
2023/06/21 05:05:57;;;;;;;7.90;6.50;;;20.10;93.50;;;;;;2101761;28;20428;-65
2023/06/21 05:06:57;;;;;;;7.67;6.47;;;20.10;93.30;;;;;;2105937;28;20186;-64
2023/06/21 05:07:59;;;;;;;9.07;6.83;;;20.20;93.20;;;;;;2099733;28;20642;-63
2023/06/21 05:09:00;;;;;;;7.60;6.53;;;20.10;93.10;;;;;;2097545;28;20215;-63
2023/06/21 05:10:00;;;;;;;7.27;6.30;;;20.10;92.90;;;;;;2104161;28;20459;-64
2023/06/21 05:11:01;;;;;;;9.27;6.50;;;20.10;92.70;;;;;;2101807;28;20179;-65
2023/06/21 05:12:02;;;;;;;8.60;6.57;;;20.20;93.00;;;;;;2104544;28;20236;-64
2023/06/21 05:13:03;;;;;;;8.13;7.20;;;20.20;92.20;;;;;;2104844;28;20179;-64
2023/06/21 05:14:04;;;;;;;11.90;7.03;;;20.20;92.10;;;;;;2097170;28;20239;-63
2023/06/21 05:15:05;;;;;;;9.97;6.47;;;20.20;92.10;;;;;;2090058;28;20176;-64
2023/06/21 05:16:06;;;;;;;10.40;7.00;;;20.30;91.60;;;;;;2105393;28;21008;-64
2023/06/21 05:17:07;;;;;;;9.50;6.90;;;20.30;91.40;;;;;;2103475;28;20419;-64
2023/06/21 05:18:08;;;;;;;10.20;9.20;;;20.30;91.70;;;;;;2097588;28;20196;-65
2023/06/21 05:19:09;;;;;;;9.77;7.37;;;20.30;91.80;;;;;;2099845;28;20677;-64
2023/06/21 05:20:10;;;;;;;7.20;6.50;;;20.30;92.10;;;;;;2097651;28;20432;-64
2023/06/21 05:21:11;;;;;;;10.27;7.70;;;20.30;92.40;;;;;;2100686;28;20838;-64
2023/06/21 05:22:11;;;;;;;11.50;7.23;;;20.40;92.40;;;;;;2106200;28;20506;-64
2023/06/21 05:23:12;;;;;;;9.40;6.90;;;20.40;92.50;;;;;;2099431;28;20208;-64